createdAt,value
2022-12-27T00:02:25.382Z,17.33
2022-12-27T00:04:53.082Z,19.98
2022-12-27T00:07:20.196Z,20.33
2022-12-27T00:09:47.434Z,20.60
2022-12-27T00:12:14.407Z,21.33
2022-12-27T00:14:41.557Z,21.35
2022-12-27T00:17:08.948Z,23.23
2022-12-27T00:19:36.376Z,22.65
2022-12-27T00:22:15.645Z,20.50
2022-12-27T00:24:42.617Z,20.13
2022-12-27T00:27:09.683Z,18.52
2022-12-27T00:29:36.689Z,17.10
2022-12-27T00:32:03.811Z,18.58
2022-12-27T00:34:30.933Z,15.90
2022-12-27T00:36:57.919Z,17.67
2022-12-27T00:39:25.043Z,18.80
2022-12-27T00:41:52.072Z,19.85
2022-12-27T00:44:19.114Z,19.35
2022-12-27T00:46:46.128Z,18.45
2022-12-27T00:49:13.143Z,21.23
2022-12-27T00:51:40.194Z,18.63
2022-12-27T00:54:07.802Z,19.15
2022-12-27T00:56:34.953Z,20.02
2022-12-27T00:59:03.927Z,20.85
2022-12-27T01:01:33.914Z,18.63
2022-12-27T01:04:01.709Z,18.30
2022-12-27T01:06:32.446Z,15.27
2022-12-27T01:09:00.846Z,13.60
2022-12-27T01:11:28.691Z,14.82
2022-12-27T01:14:00.720Z,16.23
2022-12-27T01:16:29.670Z,14.25
2022-12-27T01:18:57.678Z,16.95
2022-12-27T01:21:25.633Z,16.88
2022-12-27T01:23:52.695Z,15.13
2022-12-27T01:26:21.847Z,16.33
2022-12-27T01:28:50.241Z,15.85
2022-12-27T01:31:20.456Z,17.20
2022-12-27T01:33:47.949Z,18.00
2022-12-27T01:36:20.530Z,18.23
2022-12-27T01:38:48.954Z,20.02
2022-12-27T01:41:38.384Z,18.80
2022-12-27T01:44:53.577Z,21.23
2022-12-27T01:48:15.965Z,20.05
2022-12-27T01:50:51.775Z,20.48
2022-12-27T01:53:31.101Z,22.55
2022-12-27T01:56:09.933Z,18.95
2022-12-27T01:58:44.533Z,20.35
2022-12-27T02:01:21.578Z,19.60
2022-12-27T02:03:53.892Z,18.67
2022-12-27T02:06:22.732Z,20.90
2022-12-27T02:09:00.214Z,22.73
2022-12-27T02:11:49.537Z,22.35
2022-12-27T02:14:23.482Z,20.35
2022-12-27T02:16:55.565Z,20.98
2022-12-27T02:20:02.036Z,21.23
2022-12-27T02:23:51.167Z,21.77
2022-12-27T02:27:06.692Z,17.85
2022-12-27T02:29:53.855Z,21.15
2022-12-27T02:32:56.266Z,22.85
2022-12-27T02:35:32.106Z,22.10
2022-12-27T02:38:41.028Z,22.00
2022-12-27T02:41:29.856Z,22.20
2022-12-27T02:44:16.498Z,24.48
2022-12-27T02:47:03.272Z,24.40
2022-12-27T02:50:02.305Z,24.85
2022-12-27T02:53:04.045Z,23.30
2022-12-27T02:59:14.636Z,18.67
2022-12-27T03:02:29.633Z,18.25
2022-12-27T03:05:43.969Z,19.50
2022-12-27T03:08:27.312Z,19.17
2022-12-27T03:11:19.093Z,19.25
2022-12-27T03:17:02.088Z,16.75
2022-12-27T03:20:06.356Z,18.08
2022-12-27T03:22:53.065Z,17.08
2022-12-27T03:25:28.888Z,18.20
2022-12-27T03:28:23.585Z,17.83
2022-12-27T03:31:16.991Z,17.08
2022-12-27T03:33:47.817Z,15.27
2022-12-27T03:36:39.148Z,13.90
2022-12-27T03:39:16.361Z,14.63
2022-12-27T03:42:09.677Z,12.73
2022-12-27T03:44:36.824Z,13.65
2022-12-27T03:47:39.419Z,11.35
2022-12-27T03:50:31.819Z,11.20
2022-12-27T03:53:09.858Z,10.30
2022-12-27T03:55:38.137Z,10.77
2022-12-27T03:58:05.715Z,11.60
2022-12-27T04:00:32.868Z,10.20
2022-12-27T04:02:59.983Z,10.27
2022-12-27T04:05:27.219Z,10.52
2022-12-27T04:08:13.008Z,11.25
2022-12-27T04:10:58.328Z,10.95
2022-12-27T04:13:44.314Z,10.48
2022-12-27T04:16:30.208Z,11.85
2022-12-27T04:19:15.724Z,12.93
2022-12-27T04:22:01.260Z,13.50
2022-12-27T04:24:46.572Z,10.23
2022-12-27T04:27:32.202Z,10.35
2022-12-27T04:30:17.765Z,8.65
2022-12-27T04:33:03.308Z,8.35
2022-12-27T04:35:30.390Z,9.18
2022-12-27T04:37:57.420Z,9.10
2022-12-27T04:40:43.149Z,8.13
2022-12-27T04:43:29.035Z,8.23
2022-12-27T04:46:15.050Z,8.20
2022-12-27T04:49:00.653Z,9.05
2022-12-27T04:51:46.331Z,9.40
2022-12-27T04:54:40.918Z,9.35
2022-12-27T04:57:07.976Z,13.02
2022-12-27T04:59:53.578Z,13.85
2022-12-27T05:02:21.444Z,16.45
2022-12-27T05:04:49.048Z,14.48
2022-12-27T05:07:34.737Z,13.65
2022-12-27T05:10:23.607Z,10.10
2022-12-27T05:13:09.248Z,9.77
2022-12-27T05:15:36.314Z,8.13
2022-12-27T05:18:03.446Z,8.10
2022-12-27T05:20:30.486Z,7.13
2022-12-27T05:23:16.349Z,7.45
2022-12-27T05:25:44.947Z,7.30
2022-12-27T05:28:13.422Z,6.47
2022-12-27T05:30:42.616Z,6.38
2022-12-27T05:33:10.042Z,7.20
2022-12-27T05:35:37.833Z,8.20
2022-12-27T05:38:05.513Z,8.02
2022-12-27T05:40:32.662Z,6.70
2022-12-27T05:43:00.860Z,8.55
2022-12-27T05:45:29.069Z,8.95
2022-12-27T05:47:56.095Z,10.77
2022-12-27T05:50:23.312Z,15.27
2022-12-27T05:52:51.019Z,16.45
2022-12-27T05:55:18.194Z,20.67
2022-12-27T05:57:45.145Z,19.27
2022-12-27T06:00:12.973Z,21.25
2022-12-27T06:02:42.634Z,20.95
2022-12-27T06:05:11.002Z,22.85
2022-12-27T06:07:39.162Z,22.65
2022-12-27T06:10:08.024Z,28.85
2022-12-27T06:12:35.604Z,24.58
2022-12-27T06:15:02.883Z,22.55
2022-12-27T06:17:30.044Z,18.75
2022-12-27T06:19:57.551Z,17.38
2022-12-27T06:22:25.378Z,15.85
2022-12-27T06:24:52.401Z,17.80
2022-12-27T06:27:19.398Z,13.82
2022-12-27T06:29:46.425Z,16.58
2022-12-27T06:32:13.591Z,16.45
2022-12-27T06:34:40.758Z,15.38
2022-12-27T06:37:07.723Z,14.85
2022-12-27T06:39:34.709Z,17.30
2022-12-27T06:42:01.726Z,15.02
2022-12-27T06:44:28.848Z,15.27
2022-12-27T06:46:55.860Z,11.70
2022-12-27T06:49:22.945Z,10.25
2022-12-27T06:51:55.735Z,11.75
2022-12-27T06:54:26.476Z,11.68
2022-12-27T06:56:53.447Z,11.10
2022-12-27T06:59:20.499Z,7.72
2022-12-27T07:01:47.619Z,9.77
2022-12-27T07:04:14.868Z,9.73
2022-12-27T07:06:41.925Z,9.07
2022-12-27T07:09:08.991Z,8.80
2022-12-27T07:11:37.523Z,8.52
2022-12-27T07:14:04.924Z,9.27
2022-12-27T07:16:32.198Z,9.48
2022-12-27T07:18:59.998Z,8.57
2022-12-27T07:21:28.988Z,8.48
2022-12-27T07:23:56.758Z,8.73
2022-12-27T07:26:28.006Z,9.80
2022-12-27T07:28:55.822Z,10.77
2022-12-27T07:31:26.488Z,11.98
2022-12-27T07:33:53.697Z,28.20
2022-12-27T07:36:24.377Z,28.98
2022-12-27T07:38:51.870Z,23.33
2022-12-27T07:41:19.283Z,22.67
2022-12-27T07:43:46.925Z,21.55
2022-12-27T07:46:17.283Z,20.50
2022-12-27T07:48:45.395Z,23.10
2022-12-27T07:51:12.732Z,21.23
2022-12-27T07:53:40.363Z,23.13
2022-12-27T07:56:13.104Z,25.02
2022-12-27T07:58:42.733Z,27.42
2022-12-27T08:01:11.154Z,29.60
2022-12-27T08:03:38.832Z,29.52
2022-12-27T08:06:06.924Z,28.33
2022-12-27T08:08:43.284Z,28.70
2022-12-27T08:11:10.445Z,29.00
2022-12-27T08:13:37.957Z,30.15
2022-12-27T08:16:05.809Z,29.95
2022-12-27T08:18:33.905Z,29.33
2022-12-27T08:21:01.086Z,27.02
2022-12-27T08:23:28.073Z,28.50
2022-12-27T08:25:55.049Z,29.42
2022-12-27T08:28:21.998Z,32.30
2022-12-27T08:30:49.094Z,35.50
2022-12-27T08:33:16.313Z,35.83
2022-12-27T08:35:53.970Z,31.92
2022-12-27T08:38:21.521Z,29.45
2022-12-27T08:40:48.651Z,31.02
2022-12-27T08:43:15.693Z,22.80
2022-12-27T08:45:42.804Z,21.33
2022-12-27T08:48:09.932Z,23.05
2022-12-27T08:50:37.158Z,21.63
2022-12-27T08:53:06.274Z,20.30
2022-12-27T08:55:33.779Z,17.60
2022-12-27T08:58:10.525Z,17.35
2022-12-27T09:00:42.669Z,15.07
2022-12-27T09:03:10.175Z,15.07
2022-12-27T09:05:41.679Z,28.75
2022-12-27T09:08:09.017Z,21.33
2022-12-27T09:10:36.085Z,22.20
2022-12-27T09:13:03.492Z,21.65
2022-12-27T09:15:30.662Z,20.50
2022-12-27T09:17:57.726Z,17.42
2022-12-27T09:20:24.877Z,15.30
2022-12-27T09:22:52.485Z,15.20
2022-12-27T09:25:19.699Z,16.88
2022-12-27T09:27:46.687Z,14.82
2022-12-27T09:30:13.963Z,13.50
2022-12-27T09:32:41.129Z,13.70
2022-12-27T09:35:08.644Z,11.23
2022-12-27T09:37:35.571Z,13.25
2022-12-27T09:40:02.564Z,16.05
2022-12-27T09:43:16.309Z,16.65
2022-12-27T09:45:50.448Z,18.45
2022-12-27T09:48:33.406Z,16.75
2022-12-27T09:51:25.700Z,21.80
2022-12-27T09:54:40.698Z,22.98
2022-12-27T09:57:20.236Z,25.35
2022-12-27T09:59:52.259Z,26.65
2022-12-27T10:02:23.388Z,28.23
2022-12-27T10:05:19.269Z,30.25
2022-12-27T10:08:03.593Z,29.63
2022-12-27T10:10:50.925Z,27.58
2022-12-27T10:13:58.754Z,29.48
2022-12-27T10:16:48.231Z,31.60
2022-12-27T10:19:57.246Z,26.17
2022-12-27T10:22:39.070Z,29.73
2022-12-27T10:25:12.551Z,29.52
2022-12-27T10:27:40.359Z,28.70
2022-12-27T10:30:14.977Z,34.72
2022-12-27T10:32:42.853Z,31.85
2022-12-27T10:35:14.840Z,34.83
2022-12-27T10:37:41.942Z,31.42
2022-12-27T10:40:19.942Z,31.02
2022-12-27T10:43:12.435Z,29.85
2022-12-27T10:45:42.494Z,27.42
2022-12-27T10:48:21.820Z,27.27
2022-12-27T10:50:58.493Z,24.08
2022-12-27T10:53:38.363Z,23.98
2022-12-27T10:56:14.751Z,21.38
2022-12-27T10:58:56.494Z,22.48
2022-12-27T11:01:29.225Z,22.88
2022-12-27T11:04:21.515Z,21.58
2022-12-27T11:07:13.046Z,21.17
2022-12-27T11:09:50.738Z,23.77
2022-12-27T11:12:29.052Z,22.20
2022-12-27T11:15:19.058Z,20.70
2022-12-27T11:17:58.479Z,23.00
2022-12-27T11:20:50.791Z,23.80
2022-12-27T11:23:21.334Z,21.48
2022-12-27T11:26:00.198Z,21.58
2022-12-27T11:28:44.287Z,19.42
2022-12-27T11:31:17.355Z,19.50
2022-12-27T11:33:53.555Z,19.20
2022-12-27T11:36:25.710Z,19.70
2022-12-27T11:38:52.717Z,20.63
2022-12-27T11:41:47.262Z,22.13
2022-12-27T11:44:24.359Z,19.80
2022-12-27T11:47:03.950Z,22.35
2022-12-27T11:49:53.941Z,20.33
2022-12-27T11:52:40.043Z,20.50
2022-12-27T11:56:00.667Z,20.70
2022-12-27T11:59:18.616Z,20.08
2022-12-27T12:02:37.433Z,23.85
2022-12-27T12:05:49.132Z,23.60
2022-12-27T12:43:48.191Z,2.50
2022-12-27T12:46:41.676Z,2.95
2022-12-27T12:49:29.698Z,3.97
2022-12-27T12:52:25.671Z,4.00
2022-12-27T12:55:25.801Z,3.58
2022-12-27T12:58:36.266Z,3.35
2022-12-27T13:01:52.937Z,3.73
2022-12-27T13:05:04.911Z,2.83
2022-12-27T13:08:39.588Z,12.93
2022-12-27T13:33:27.156Z,7.90
2022-12-27T13:36:12.816Z,7.30
2022-12-27T13:39:28.922Z,7.18
2022-12-27T13:42:29.629Z,8.35
2022-12-27T13:45:39.159Z,8.60
2022-12-27T13:48:53.878Z,6.22
2022-12-27T13:51:50.146Z,8.25
2022-12-27T13:55:19.166Z,6.57
2022-12-27T13:58:24.150Z,6.90
2022-12-27T14:01:42.541Z,4.30
2022-12-27T14:22:22.847Z,6.88
2022-12-27T14:25:13.989Z,4.15
2022-12-27T14:31:33.301Z,4.05
2022-12-27T15:23:55.913Z,4.22
2022-12-27T15:26:55.501Z,3.58
2022-12-27T15:30:11.509Z,3.08
2022-12-27T15:38:54.369Z,2.55
2022-12-27T15:41:25.815Z,2.50
2022-12-27T15:44:23.101Z,4.05
2022-12-27T15:53:39.654Z,1.20
2022-12-27T15:59:42.699Z,4.40
2022-12-27T16:02:29.092Z,5.57
2022-12-27T16:08:27.756Z,4.45
2022-12-27T16:10:56.064Z,4.15
2022-12-27T16:13:46.627Z,3.85
2022-12-27T16:16:53.820Z,4.18
2022-12-27T16:19:49.483Z,6.75
2022-12-27T16:22:53.448Z,4.68
2022-12-27T16:25:39.004Z,3.22
2022-12-27T16:28:26.703Z,2.58
2022-12-27T16:31:04.213Z,2.42
2022-12-27T16:33:38.130Z,2.10
2022-12-27T16:36:29.311Z,2.58
2022-12-27T16:39:46.576Z,2.28
2022-12-27T16:42:14.250Z,2.38
2022-12-27T16:44:54.035Z,1.90
2022-12-27T16:47:56.149Z,2.80
2022-12-27T16:50:54.242Z,4.43
2022-12-27T16:53:58.367Z,3.95
2022-12-27T16:56:37.071Z,3.38
2022-12-27T16:59:24.189Z,2.65
2022-12-27T17:02:00.347Z,3.80
2022-12-27T17:04:53.881Z,3.60
2022-12-27T17:08:02.877Z,3.78
2022-12-27T17:10:43.056Z,3.78
2022-12-27T17:14:02.701Z,2.13
2022-12-27T17:16:41.784Z,2.25
2022-12-27T17:19:19.364Z,3.17
2022-12-27T17:21:48.521Z,3.30
2022-12-27T17:24:22.069Z,3.05
2022-12-27T17:27:44.322Z,4.15
2022-12-27T17:30:30.143Z,3.30
2022-12-27T17:33:17.421Z,2.33
2022-12-27T17:36:14.755Z,3.38
2022-12-27T17:39:10.937Z,1.88
2022-12-27T17:42:12.885Z,2.25
2022-12-27T17:45:06.925Z,1.23
2022-12-27T17:47:51.075Z,1.30
2022-12-27T17:50:21.621Z,1.23
2022-12-27T17:53:35.280Z,1.40
2022-12-27T17:56:36.762Z,1.20
2022-12-27T17:59:23.581Z,1.67
2022-12-27T18:01:54.277Z,1.33
2022-12-27T18:04:49.195Z,2.05
2022-12-27T18:07:24.317Z,2.00
2022-12-27T18:09:55.936Z,1.58
2022-12-27T18:12:26.023Z,1.40
2022-12-27T18:15:05.368Z,1.80
2022-12-27T18:18:00.634Z,1.27
2022-12-27T18:20:35.467Z,1.65
2022-12-27T18:23:16.349Z,1.83
2022-12-27T18:25:52.655Z,1.98
2022-12-27T18:28:33.724Z,1.70
2022-12-27T18:31:44.902Z,1.67
2022-12-27T18:34:37.625Z,1.30
2022-12-27T18:37:11.623Z,1.55
2022-12-27T18:39:49.800Z,2.53
2022-12-27T18:42:32.993Z,5.57
2022-12-27T18:45:18.926Z,3.15
2022-12-27T18:47:48.796Z,2.72
2022-12-27T18:50:22.193Z,2.60
2022-12-27T18:52:59.463Z,1.80
2022-12-27T18:55:27.018Z,2.03
2022-12-27T18:58:19.895Z,2.10
2022-12-27T19:01:34.746Z,1.65
2022-12-27T19:04:37.437Z,1.85
2022-12-27T19:07:11.851Z,1.80
2022-12-27T19:09:49.255Z,1.48
2022-12-27T19:12:31.398Z,1.38
2022-12-27T19:14:58.670Z,1.83
2022-12-27T19:17:30.865Z,1.30
2022-12-27T19:20:04.503Z,2.10
2022-12-27T19:22:53.508Z,2.08
2022-12-27T19:25:58.276Z,3.70
2022-12-27T19:28:29.053Z,4.35
2022-12-27T19:31:22.219Z,6.00
2022-12-27T19:34:00.281Z,5.38
2022-12-27T19:36:37.504Z,7.13
2022-12-27T19:39:10.959Z,7.45
2022-12-27T19:41:39.299Z,5.18
2022-12-27T19:44:06.604Z,4.55
2022-12-27T19:46:33.771Z,3.25
2022-12-27T19:49:40.154Z,3.53
2022-12-27T19:51:47.976Z,2.33
2022-12-27T19:54:18.331Z,1.60
2022-12-27T19:56:46.039Z,2.17
2022-12-27T19:59:18.627Z,2.35
2022-12-27T20:01:46.172Z,2.08
2022-12-27T20:04:15.853Z,2.25
2022-12-27T20:06:45.452Z,2.08
2022-12-27T20:09:17.880Z,2.00
2022-12-27T20:11:45.204Z,2.47
2022-12-27T20:14:13.439Z,2.13
2022-12-27T20:16:41.100Z,2.58
2022-12-27T20:19:10.422Z,1.50
2022-12-27T20:21:39.939Z,2.17
2022-12-27T20:24:07.663Z,2.55
2022-12-27T20:26:34.814Z,1.70
2022-12-27T20:29:01.926Z,1.95
2022-12-27T20:31:29.007Z,1.73
2022-12-27T20:33:56.633Z,1.80
2022-12-27T20:36:24.391Z,1.88
2022-12-27T20:38:51.495Z,1.55
2022-12-27T20:41:20.623Z,2.00
2022-12-27T20:43:48.094Z,1.80
2022-12-27T20:46:17.292Z,2.50
2022-12-27T20:48:46.291Z,2.35
2022-12-27T20:51:16.057Z,2.35
2022-12-27T20:53:43.735Z,2.47
2022-12-27T20:56:11.299Z,3.20
2022-12-27T20:58:38.380Z,2.53
2022-12-27T21:01:11.223Z,2.60
2022-12-27T21:03:39.260Z,3.80
2022-12-27T21:06:15.921Z,2.30
2022-12-27T21:08:49.072Z,2.67
2022-12-27T21:11:27.503Z,2.92
2022-12-27T21:13:55.509Z,2.75
2022-12-27T21:16:25.469Z,3.33
2022-12-27T21:18:52.824Z,3.55
2022-12-27T21:21:24.644Z,3.95
2022-12-27T21:23:53.982Z,4.25
2022-12-27T21:26:23.727Z,3.92
2022-12-27T21:28:51.391Z,4.75
2022-12-27T21:31:19.234Z,3.05
2022-12-27T21:33:46.582Z,4.10
2022-12-27T21:36:22.437Z,4.20
2022-12-27T21:38:49.648Z,4.20
2022-12-27T21:41:21.719Z,4.10
2022-12-27T21:43:49.600Z,3.70
2022-12-27T21:46:40.988Z,4.18
2022-12-27T21:49:10.605Z,5.53
2022-12-27T21:51:38.435Z,4.57
2022-12-27T21:54:05.877Z,5.28
2022-12-27T21:56:33.117Z,4.38
2022-12-27T21:59:00.577Z,4.70
2022-12-27T22:01:50.316Z,4.85
2022-12-27T22:04:18.796Z,4.32
2022-12-27T22:06:47.511Z,4.88
2022-12-27T22:09:15.120Z,4.30
2022-12-27T22:11:42.205Z,4.60
2022-12-27T22:14:09.229Z,4.03
2022-12-27T22:16:39.095Z,4.60
2022-12-27T22:19:08.775Z,4.63
2022-12-27T22:21:36.882Z,5.05
2022-12-27T22:24:04.259Z,4.30
2022-12-27T22:26:39.250Z,4.18
2022-12-27T22:29:06.612Z,4.70
2022-12-27T22:31:36.754Z,4.22
2022-12-27T22:34:05.232Z,5.55
2022-12-27T22:36:32.393Z,4.95
2022-12-27T22:39:00.556Z,4.95
2022-12-27T22:41:29.785Z,5.72
2022-12-27T22:43:59.848Z,5.90
2022-12-27T22:46:28.517Z,4.68
2022-12-27T22:48:57.884Z,4.70
2022-12-27T22:51:27.592Z,4.43
2022-12-27T22:53:56.721Z,3.92
2022-12-27T22:56:26.434Z,5.57
2022-12-27T22:58:53.685Z,4.32
2022-12-27T23:01:27.976Z,4.43
2022-12-27T23:03:56.277Z,5.07
2022-12-27T23:06:23.821Z,4.45
2022-12-27T23:08:51.152Z,4.90
2022-12-27T23:11:23.518Z,5.05
2022-12-27T23:13:59.683Z,5.32
2022-12-27T23:16:27.101Z,4.75
2022-12-27T23:18:54.471Z,4.90
2022-12-27T23:21:24.479Z,5.60
2022-12-27T23:23:52.388Z,4.78
2022-12-27T23:26:22.233Z,4.95
2022-12-27T23:28:51.097Z,4.90
2022-12-27T23:31:20.216Z,5.15
2022-12-27T23:33:47.884Z,4.38
2022-12-27T23:36:15.771Z,4.72
2022-12-27T23:38:43.705Z,4.50
2022-12-27T23:41:23.463Z,5.72
2022-12-27T23:43:53.171Z,4.63
2022-12-27T23:46:29.908Z,4.07
2022-12-27T23:48:58.820Z,4.80
2022-12-27T23:51:26.166Z,5.57
2022-12-27T23:53:53.306Z,4.55
2022-12-27T23:56:23.571Z,5.05
2022-12-27T23:58:52.357Z,4.68
